Time;durP1;ratioP1;P1;durP2;ratioP2;P2;SDS_P1;SDS_P2;PMS_P1;PMS_P2;Temp;Humidity;BMP_temperature;BMP_pressure;BME280_temperature;BME280_humidity;BME280_pressure;Samples;Min_cycle;Max_cycle;Signal;HPM_P1;HPM_P2
2023/03/16 00:01:34;;;;;;;5.00;2.47;;;;;;;0.99;97.71;101563.38;4807331;30;20217;-70
2023/03/16 00:04:03;;;;;;;8.20;2.90;;;;;;;1.00;97.66;101565.09;4811277;29;20213;-71
2023/03/16 00:06:32;;;;;;;4.30;3.92;;;;;;;1.04;97.76;101563.00;4803718;30;20214;-71
2023/03/16 00:09:03;;;;;;;5.32;1.75;;;;;;;1.04;97.66;101568.34;4789725;30;20252;-71
2023/03/16 00:11:32;;;;;;;7.45;2.03;;;;;;;1.07;97.54;101573.41;4786942;30;20684;-71
2023/03/16 00:14:03;;;;;;;4.25;3.28;;;;;;;0.98;96.67;101575.00;4802849;29;20308;-71
2023/03/16 00:16:32;;;;;;;5.22;2.17;;;;;;;1.05;97.03;101573.56;4789669;30;20214;-71
2023/03/16 00:19:02;;;;;;;5.40;3.45;;;;;;;0.97;96.69;101572.50;4789343;30;20233;-71
2023/03/16 00:21:34;;;;;;;5.78;2.35;;;;;;;0.93;96.97;101569.22;4802874;29;20275;-71
2023/03/16 00:24:05;;;;;;;5.30;2.03;;;;;;;0.91;96.60;101572.97;4794829;29;20674;-71
2023/03/16 00:26:34;;;;;;;3.30;2.10;;;;;;;1.05;97.06;101568.22;4789522;30;20333;-72
2023/03/16 00:29:03;;;;;;;3.20;2.42;;;;;;;0.97;96.64;101575.97;4797790;29;20621;-71
2023/03/16 00:31:32;;;;;;;6.07;1.90;;;;;;;0.85;96.45;101572.50;4789226;29;20316;-71
2023/03/16 00:34:03;;;;;;;7.93;1.90;;;;;;;0.77;96.95;101574.94;4789645;30;20224;-71
2023/03/16 00:41:03;;;;;;;2.22;2.03;;;;;;;0.79;96.87;101577.47;4782759;30;20248;-71
2023/03/16 00:43:39;;;;;;;4.25;2.40;;;;;;;0.73;96.61;101577.94;4789188;30;20687;-71
2023/03/16 00:46:10;;;;;;;5.78;2.80;;;;;;;0.74;96.21;101576.97;4788678;30;20224;-71
2023/03/16 00:48:42;;;;;;;6.05;2.35;;;;;;;0.72;95.93;101582.47;4788429;30;20268;-69
2023/03/16 00:51:13;;;;;;;7.70;1.92;;;;;;;0.75;96.36;101579.53;4793675;29;20206;-71
2023/03/16 00:53:44;;;;;;;10.77;2.42;;;;;;;0.78;96.35;101589.09;4797431;29;20236;-70
2023/03/16 00:56:15;;;;;;;4.47;1.85;;;;;;;0.85;95.76;101585.81;4788763;30;20645;-72
2023/03/16 00:58:44;;;;;;;5.95;1.90;;;;;;;0.76;94.84;101591.03;4789470;30;20280;-69
2023/03/16 01:01:15;;;;;;;4.70;2.13;;;;;;;0.64;94.56;101586.66;4788283;30;20222;-71
2023/03/16 01:03:45;;;;;;;5.70;2.38;;;;;;;0.60;94.69;101587.88;4788158;30;20209;-71
2023/03/16 01:06:15;;;;;;;3.83;2.00;;;;;;;0.65;95.59;101583.03;4788200;30;20213;-71
2023/03/16 01:08:45;;;;;;;3.17;1.95;;;;;;;0.66;95.14;101595.41;4788002;30;20234;-71
2023/03/16 01:11:18;;;;;;;8.50;2.90;;;;;;;0.76;95.18;101586.56;4788155;30;20247;-71
2023/03/16 01:17:21;;;;;;;5.95;1.92;;;;;;;0.58;94.67;101588.00;4780936;30;20311;-71
2023/03/16 01:19:50;;;;;;;5.05;2.40;;;;;;;0.62;95.08;101594.81;4789567;29;20259;-71
2023/03/16 01:23:30;;;;;;;3.25;2.28;;;;;;;0.54;94.40;101591.88;4787905;30;20221;-72
2023/03/16 01:26:01;;;;;;;4.25;2.63;;;;;;;0.48;93.98;101599.53;4803505;29;20638;-71
2023/03/16 01:28:33;;;;;;;5.35;2.08;;;;;;;0.46;94.74;101588.97;4797927;29;20286;-71
2023/03/16 01:31:05;;;;;;;3.80;2.38;;;;;;;0.36;94.41;101588.84;4788875;29;20271;-72
2023/03/16 01:33:36;;;;;;;5.75;2.15;;;;;;;0.42;94.25;101593.72;4787766;30;20585;-71
2023/03/16 01:36:10;;;;;;;3.95;2.45;;;;;;;0.44;94.41;101594.41;4787960;30;20723;-70
2023/03/16 01:38:46;;;;;;;5.57;1.83;;;;;;;0.56;94.39;101594.44;4787788;30;20228;-71
2023/03/16 01:41:18;;;;;;;5.05;2.50;;;;;;;0.44;93.28;101585.56;4787631;30;20669;-71
2023/03/16 01:43:50;;;;;;;6.72;2.40;;;;;;;0.49;93.83;101588.72;4784443;30;20222;-71
2023/03/16 01:50:38;;;;;;;3.03;2.45;;;;;;;0.50;92.94;101585.09;4803615;29;20191;-71
2023/03/16 01:53:07;;;;;;;13.50;1.75;;;;;;;0.56;92.56;101592.63;4793495;29;20209;-70
2023/03/16 01:55:37;;;;;;;2.92;1.83;;;;;;;0.55;92.53;101587.41;4787311;30;20705;-71
2023/03/16 01:58:07;;;;;;;5.32;2.63;;;;;;;0.52;92.45;101592.97;4779755;30;20233;-70
2023/03/16 02:00:37;;;;;;;11.63;3.28;;;;;;;0.52;92.72;101588.50;4802534;29;20240;-71
2023/03/16 02:03:17;;;;;;;8.18;2.20;;;;;;;0.33;92.61;101590.91;4787801;29;20256;-71
2023/03/16 02:05:56;;;;;;;5.75;1.98;;;;;;;0.72;92.91;101578.94;4771275;30;20220;-71
2023/03/16 02:08:27;;;;;;;2.78;1.80;;;;;;;0.63;91.74;101579.69;4787431;30;20294;-72
2023/03/16 02:10:57;;;;;;;6.72;2.00;;;;;;;0.49;91.38;101582.56;4787081;30;20236;-69
2023/03/16 02:13:38;;;;;;;14.77;2.65;;;;;;;0.39;91.64;101583.28;4784518;30;20218;-72
2023/03/16 02:16:09;;;;;;;4.50;2.65;;;;;;;0.40;91.72;101578.81;4799528;29;20562;-71
2023/03/16 02:18:39;;;;;;;5.88;1.83;;;;;;;0.60;92.12;101582.56;4791023;29;20798;-72
2023/03/16 02:21:19;;;;;;;7.80;2.47;;;;;;;0.50;90.52;101578.94;4784323;30;20296;-72
2023/03/16 02:23:50;;;;;;;3.45;2.15;;;;;;;0.46;90.69;101577.47;4790309;29;20591;-71
2023/03/16 02:26:29;;;;;;;8.07;3.83;;;;;;;0.49;90.95;101582.56;4789956;29;20213;-72
2023/03/16 02:29:12;;;;;;;8.45;2.67;;;;;;;0.41;90.59;101584.00;4783895;30;20236;-71
2023/03/16 02:31:43;;;;;;;3.55;2.20;;;;;;;0.47;90.30;101581.84;4770462;30;20255;-70
2023/03/16 02:34:16;;;;;;;6.32;2.33;;;;;;;0.39;90.30;101583.28;4783963;30;20210;-71
2023/03/16 02:36:48;;;;;;;5.40;2.20;;;;;;;0.53;90.56;101584.88;4787235;30;20708;-72
2023/03/16 02:39:20;;;;;;;5.15;2.53;;;;;;;0.49;90.03;101582.56;4786923;30;20209;-71
2023/03/16 02:41:50;;;;;;;3.80;2.47;;;;;;;0.53;89.62;101590.22;4787012;30;20713;-72
2023/03/16 02:44:24;;;;;;;6.40;2.90;;;;;;;0.40;89.50;101584.13;4786926;30;20209;-71
2023/03/16 02:47:00;;;;;;;3.25;1.80;;;;;;;0.35;89.85;101580.97;4787385;30;20201;-72
2023/03/16 02:50:36;;;;;;;8.60;2.17;;;;;;;0.35;90.13;101587.16;4788225;29;20201;-72
2023/03/16 02:53:07;;;;;;;3.17;2.00;;;;;;;0.47;89.82;101589.81;4805452;30;20205;-71
2023/03/16 02:55:37;;;;;;;4.30;2.17;;;;;;;0.42;89.56;101583.06;4810365;29;20201;-72
2023/03/16 02:58:06;;;;;;;6.22;2.15;;;;;;;0.48;89.97;101583.53;4808271;30;20293;-71
2023/03/16 03:00:35;;;;;;;4.25;1.92;;;;;;;0.48;89.54;101584.41;4795988;30;20248;-72
2023/03/16 03:03:08;;;;;;;3.17;1.80;;;;;;;0.48;89.26;101588.88;4803882;29;20320;-72
2023/03/16 03:05:39;;;;;;;8.32;2.25;;;;;;;0.52;89.11;101592.97;4799978;29;20210;-72
2023/03/16 03:08:08;;;;;;;4.75;1.58;;;;;;;0.54;88.85;101593.69;4803148;29;20605;-72
2023/03/16 03:10:38;;;;;;;6.97;2.10;;;;;;;0.52;88.10;101595.66;4786414;29;20267;-72
2023/03/16 03:13:08;;;;;;;6.10;2.13;;;;;;;0.45;87.98;101603.25;4786687;30;20213;-72
2023/03/16 03:15:37;;;;;;;5.65;1.98;;;;;;;0.36;88.37;101603.97;4787171;29;20273;-72
2023/03/16 03:18:11;;;;;;;5.05;2.72;;;;;;;0.50;88.58;101601.09;4785112;30;20327;-72
2023/03/16 03:20:41;;;;;;;7.18;1.75;;;;;;;0.44;88.29;101606.88;4802252;29;20212;-73
2023/03/16 03:23:11;;;;;;;3.85;2.88;;;;;;;0.40;88.40;101600.94;4802200;29;20761;-72
2023/03/16 03:25:59;;;;;;;3.38;1.70;;;;;;;0.52;88.49;101611.63;4786789;30;20230;-71
2023/03/16 03:28:30;;;;;;;2.13;1.85;;;;;;;0.42;87.41;101620.34;4802188;29;20237;-71
2023/03/16 03:31:00;;;;;;;4.63;1.60;;;;;;;0.36;88.01;101620.81;4787303;30;20696;-71
2023/03/16 03:33:32;;;;;;;6.47;2.50;;;;;;;0.47;88.22;101621.78;4793394;29;20299;-71
2023/03/16 03:39:39;;;;;;;4.38;1.60;;;;;;;0.55;87.41;101622.88;4786978;29;20212;-72
2023/03/16 03:42:08;;;;;;;8.73;1.73;;;;;;;0.49;87.00;101623.34;4802664;29;20685;-70
2023/03/16 03:44:38;;;;;;;3.05;1.83;;;;;;;0.41;87.45;101618.63;4791513;29;20205;-73
2023/03/16 03:47:07;;;;;;;3.38;2.50;;;;;;;0.51;87.72;101615.25;4796351;29;20216;-71
2023/03/16 03:49:38;;;;;;;9.25;2.75;;;;;;;0.51;86.75;101617.91;4795667;29;20213;-71
2023/03/16 03:52:07;;;;;;;6.30;2.17;;;;;;;0.42;86.28;101624.81;4792095;29;20217;-70
2023/03/16 03:54:37;;;;;;;4.68;2.17;;;;;;;0.39;86.55;101619.69;4804624;29;20248;-71
2023/03/16 03:57:10;;;;;;;3.63;1.67;;;;;;;0.41;86.78;101620.44;4792817;30;20237;-71
2023/03/16 03:59:42;;;;;;;4.43;1.50;;;;;;;0.32;86.72;101615.84;4790896;30;20205;-72
2023/03/16 04:02:38;;;;;;;4.30;1.88;;;;;;;0.46;87.11;101620.09;4774971;30;20645;-71
2023/03/16 04:05:15;;;;;;;4.10;1.98;;;;;;;0.44;86.33;101623.72;4792970;30;20260;-72
2023/03/16 04:07:45;;;;;;;8.20;2.70;;;;;;;0.31;86.12;101622.97;4796183;30;20612;-71
2023/03/16 04:10:15;;;;;;;5.28;3.17;;;;;;;0.27;86.67;101616.19;4796161;29;20204;-72
2023/03/16 04:12:44;;;;;;;8.75;1.63;;;;;;;0.39;87.55;101623.22;4793208;29;20210;-72
2023/03/16 04:15:15;;;;;;;9.20;2.35;;;;;;;0.32;86.55;101613.19;4797836;29;20274;-72
2023/03/16 04:17:58;;;;;;;5.40;2.20;;;;;;;0.32;86.10;101616.69;4789940;30;20327;-72
2023/03/16 04:20:28;;;;;;;8.50;2.88;;;;;;;0.36;86.74;101614.63;4789505;30;20750;-71
2023/03/16 04:22:58;;;;;;;10.77;1.77;;;;;;;0.25;86.52;101618.13;4789571;30;20241;-72
2023/03/16 04:25:29;;;;;;;2.70;1.98;;;;;;;0.25;86.31;101618.13;4790696;30;20209;-72
2023/03/16 04:27:59;;;;;;;4.50;2.05;;;;;;;0.22;86.50;101614.84;4796884;29;20371;-72
2023/03/16 04:30:32;;;;;;;2.42;2.10;;;;;;;0.18;86.83;101616.91;4804715;29;20205;-71
2023/03/16 04:33:13;;;;;;;6.88;2.75;;;;;;;0.19;86.69;101618.59;4780956;30;20250;-71
2023/03/16 04:35:45;;;;;;;5.15;2.10;;;;;;;0.14;87.26;101615.44;4804254;29;20714;-72
2023/03/16 04:38:16;;;;;;;4.45;1.90;;;;;;;0.17;87.91;101620.53;4789114;30;20327;-72
2023/03/16 04:40:57;;;;;;;9.45;4.35;;;;;;;0.27;88.30;101621.50;4794651;30;20198;-71
2023/03/16 04:43:33;;;;;;;6.22;2.15;;;;;;;0.18;87.80;101619.56;4794287;30;20234;-72
2023/03/16 04:46:09;;;;;;;4.55;2.90;;;;;;;0.13;88.42;101621.72;4794505;30;20205;-72
2023/03/16 04:48:38;;;;;;;5.88;2.78;;;;;;;0.28;88.30;101625.88;4815039;29;20240;-71
2023/03/16 04:51:09;;;;;;;4.95;2.53;;;;;;;0.29;87.14;101627.56;4800036;29;20209;-71
2023/03/16 04:53:43;;;;;;;3.50;1.85;;;;;;;0.24;87.79;101628.91;4793612;30;20206;-71
2023/03/16 04:56:23;;;;;;;8.30;2.80;;;;;;;0.32;86.71;101624.66;4789975;30;20205;-72
2023/03/16 04:58:57;;;;;;;5.18;1.70;;;;;;;0.28;86.83;101628.53;4804134;29;20243;-71
2023/03/16 05:01:30;;;;;;;8.75;2.42;;;;;;;0.23;87.05;101630.72;4801104;29;20271;-71
2023/03/16 05:04:02;;;;;;;3.63;1.77;;;;;;;0.10;87.88;101635.25;4773116;30;20238;-70
2023/03/16 05:06:35;;;;;;;7.90;2.85;;;;;;;0.13;88.17;101632.38;4789396;30;20197;-72
2023/03/16 05:09:07;;;;;;;11.35;2.67;;;;;;;0.07;87.98;101638.16;4788863;30;20716;-72
2023/03/16 05:11:38;;;;;;;3.30;2.55;;;;;;;0.08;88.01;101639.00;4786534;30;20215;-71
2023/03/16 05:14:10;;;;;;;2.92;2.30;;;;;;;0.06;87.71;101638.25;4787899;30;20650;-72
2023/03/16 05:16:54;;;;;;;5.43;2.10;;;;;;;-0.13;88.33;101639.66;4800474;30;20288;-70
2023/03/16 05:19:23;;;;;;;2.58;1.70;;;;;;;-0.05;88.73;101644.44;4790186;30;20597;-73
2023/03/16 05:21:55;;;;;;;6.53;3.35;;;;;;;-0.13;89.07;101644.13;4801717;29;20242;-71
2023/03/16 05:24:25;;;;;;;6.45;1.83;;;;;;;-0.09;89.46;101642.94;4801598;29;20234;-74
2023/03/16 05:26:56;;;;;;;4.85;1.95;;;;;;;-0.08;88.95;101644.63;4785341;30;20322;-74
2023/03/16 05:29:26;;;;;;;2.75;1.98;;;;;;;-0.10;89.64;101643.91;4793838;29;20224;-73
2023/03/16 05:31:55;;;;;;;9.52;3.35;;;;;;;-0.10;89.46;101650.06;4790083;30;20233;-72
2023/03/16 05:34:27;;;;;;;6.72;1.98;;;;;;;-0.12;89.67;101651.16;4780180;29;20627;-72
2023/03/16 05:36:57;;;;;;;4.82;2.20;;;;;;;-0.15;89.96;101646.06;4785386;30;20292;-73
2023/03/16 05:39:27;;;;;;;4.70;2.38;;;;;;;-0.15;90.07;101648.75;4788727;30;20209;-72
2023/03/16 05:41:56;;;;;;;7.43;2.35;;;;;;;0.13;90.31;101651.00;4789993;29;20210;-72
2023/03/16 05:44:31;;;;;;;2.90;2.08;;;;;;;0.35;89.22;101655.53;4789177;30;20216;-73
2023/03/16 05:47:21;;;;;;;5.88;2.40;;;;;;;0.39;88.36;101657.84;4790981;30;20251;-72
2023/03/16 05:49:55;;;;;;;5.03;3.05;;;;;;;0.42;88.01;101662.94;4811564;29;20189;-72
2023/03/16 05:52:45;;;;;;;5.70;2.88;;;;;;;0.39;87.98;101656.97;4810690;30;20597;-72
2023/03/16 05:55:21;;;;;;;12.18;3.60;;;;;;;0.45;87.78;101667.16;4813522;29;20212;-72
2023/03/16 05:57:58;;;;;;;7.20;2.00;;;;;;;0.41;87.92;101666.56;4788372;30;20676;-73
2023/03/16 06:00:28;;;;;;;5.65;2.45;;;;;;;0.36;87.82;101675.88;4787813;29;20800;-72
2023/03/16 06:03:09;;;;;;;7.45;3.50;;;;;;;0.32;87.87;101672.59;4799143;29;20204;-71
2023/03/16 06:05:40;;;;;;;8.90;2.17;;;;;;;0.39;87.71;101673.81;4788240;30;20221;-72
2023/03/16 06:08:11;;;;;;;4.88;2.70;;;;;;;0.62;87.27;101679.19;4802759;29;20233;-70
2023/03/16 06:10:43;;;;;;;6.03;3.00;;;;;;;0.74;86.51;101676.41;4802702;29;20243;-73
2023/03/16 06:13:12;;;;;;;7.60;2.67;;;;;;;0.92;86.70;101674.09;4798629;29;20202;-71
2023/03/16 06:15:54;;;;;;;6.45;2.60;;;;;;;1.00;86.47;101669.03;4787572;30;20559;-72
2023/03/16 06:18:24;;;;;;;7.72;2.53;;;;;;;1.09;85.27;101673.63;4787058;30;20702;-72
2023/03/16 06:20:53;;;;;;;3.22;1.80;;;;;;;1.18;84.64;101678.22;4787610;30;20209;-73
2023/03/16 06:23:24;;;;;;;6.57;2.40;;;;;;;1.30;84.25;101674.59;4792573;30;20327;-73
2023/03/16 06:25:54;;;;;;;6.30;2.65;;;;;;;1.31;82.10;101672.75;4800078;29;20589;-73
2023/03/16 06:28:26;;;;;;;5.13;2.38;;;;;;;1.36;82.83;101680.38;4788187;30;20241;-71
2023/03/16 06:30:56;;;;;;;5.05;3.50;;;;;;;1.51;81.61;101684.47;4802607;29;20206;-70
2023/03/16 06:33:30;;;;;;;6.13;4.22;;;;;;;1.62;82.08;101687.13;4802188;29;20213;-69
2023/03/16 06:36:00;;;;;;;7.95;2.75;;;;;;;1.68;81.50;101691.97;4811652;29;20201;-70
2023/03/16 06:38:38;;;;;;;8.50;2.15;;;;;;;1.81;79.66;101692.66;4802334;29;20309;-72
2023/03/16 06:41:16;;;;;;;9.80;3.00;;;;;;;1.86;79.06;101687.78;4784054;30;20755;-73
2023/03/16 06:43:47;;;;;;;4.55;2.67;;;;;;;1.99;79.92;101693.78;4786899;30;20309;-72
2023/03/16 06:46:16;;;;;;;7.03;3.22;;;;;;;2.00;78.63;101697.31;4787105;30;20284;-71
2023/03/16 06:48:46;;;;;;;3.30;2.10;;;;;;;2.19;75.86;101703.66;4801891;29;20650;-71
2023/03/16 06:51:15;;;;;;;3.97;2.10;;;;;;;2.19;75.04;101708.16;4787237;30;20210;-72
2023/03/16 06:53:47;;;;;;;4.65;2.58;;;;;;;2.31;75.09;101711.63;4787269;30;20217;-72
2023/03/16 06:56:17;;;;;;;6.80;2.22;;;;;;;2.46;75.47;101713.00;4802499;29;20249;-71
2023/03/16 06:58:47;;;;;;;7.25;2.30;;;;;;;2.58;73.66;101704.78;4792301;29;20241;-73
2023/03/16 07:01:16;;;;;;;4.38;2.65;;;;;;;2.70;73.05;101710.91;4786835;30;20309;-71
2023/03/16 07:03:46;;;;;;;6.03;2.20;;;;;;;2.79;72.10;101715.47;4802082;29;20218;-69
2023/03/16 07:06:24;;;;;;;4.47;2.53;;;;;;;2.91;71.54;101717.06;4786932;30;20241;-71
2023/03/16 07:08:56;;;;;;;9.32;3.85;;;;;;;3.03;71.69;101715.16;4801631;29;20218;-71
2023/03/16 07:11:25;;;;;;;6.30;2.42;;;;;;;3.12;69.93;101726.88;4801835;29;20210;-71
2023/03/16 07:14:05;;;;;;;3.08;2.08;;;;;;;3.14;69.29;101732.97;4790008;30;20283;-70
2023/03/16 07:16:35;;;;;;;8.05;3.50;;;;;;;3.23;69.02;101729.47;4778519;30;20225;-71
2023/03/16 07:19:07;;;;;;;6.68;2.33;;;;;;;3.47;68.70;101735.34;4790597;30;20241;-70
2023/03/16 07:21:38;;;;;;;10.75;2.83;;;;;;;3.57;68.03;101730.00;4805816;29;20209;-71
2023/03/16 07:24:14;;;;;;;3.97;2.20;;;;;;;3.86;67.47;101733.59;4791107;29;20218;-71
2023/03/16 07:26:43;;;;;;;5.05;2.60;;;;;;;3.90;66.27;101743.06;4791440;30;20212;-71
2023/03/16 07:29:16;;;;;;;4.70;2.85;;;;;;;4.07;65.74;101741.50;4790441;30;20202;-71
2023/03/16 07:31:45;;;;;;;11.25;4.30;;;;;;;4.22;64.22;101746.31;4795179;30;20210;-70
2023/03/16 07:34:19;;;;;;;16.02;3.05;;;;;;;4.24;65.14;101747.03;4794491;30;20217;-73
2023/03/16 07:36:54;;;;;;;15.40;3.35;;;;;;;4.46;64.31;101747.72;4791857;29;20208;-70
2023/03/16 07:39:27;;;;;;;5.15;2.75;;;;;;;4.37;62.92;101757.47;4792266;29;20198;-72
2023/03/16 07:42:04;;;;;;;5.07;2.25;;;;;;;4.52;62.72;101753.38;4795125;30;20218;-70
2023/03/16 07:44:48;;;;;;;9.77;2.45;;;;;;;4.71;62.70;101750.69;4801701;29;20226;-71
2023/03/16 07:47:19;;;;;;;5.25;2.35;;;;;;;4.86;62.52;101747.53;4798115;30;20267;-71
2023/03/16 07:49:50;;;;;;;7.20;3.55;;;;;;;5.02;61.53;101748.66;4798710;30;20259;-70
2023/03/16 07:52:19;;;;;;;5.50;1.85;;;;;;;5.27;61.35;101752.53;4792180;29;20207;-71
2023/03/16 07:54:50;;;;;;;5.63;3.03;;;;;;;5.41;60.48;101751.19;4792491;30;20245;-71
2023/03/16 08:00:19;;;;;;;6.75;2.80;;;;;;;5.20;59.25;101751.41;4837737;24;20300;-71
2023/03/16 08:02:48;;;;;;;3.75;2.50;;;;;;;5.26;59.87;101756.19;4825197;29;20667;-71
2023/03/16 08:05:18;;;;;;;10.68;3.08;;;;;;;5.32;58.25;101763.66;4833920;29;20254;-71
2023/03/16 08:07:52;;;;;;;8.75;3.35;;;;;;;5.35;58.39;101762.50;4827010;29;20277;-71
2023/03/16 08:10:26;;;;;;;6.20;3.17;;;;;;;5.63;57.64;101759.69;4834070;29;20261;-71
2023/03/16 08:13:05;;;;;;;6.88;2.40;;;;;;;5.70;56.67;101754.59;4827603;29;20234;-71
2023/03/16 08:15:36;;;;;;;7.65;2.67;;;;;;;5.80;56.63;101759.91;4834398;29;20211;-71
2023/03/16 08:18:11;;;;;;;11.80;3.10;;;;;;;5.82;57.42;101753.38;4843282;29;20233;-70
2023/03/16 08:20:41;;;;;;;10.13;3.67;;;;;;;5.88;56.32;101758.19;4827490;29;20632;-71
2023/03/16 08:23:14;;;;;;;11.27;2.88;;;;;;;5.95;55.83;101761.97;4830167;29;20204;-70
2023/03/16 08:25:45;;;;;;;5.20;2.47;;;;;;;6.20;56.55;101757.66;4845481;29;20225;-71
2023/03/16 08:28:20;;;;;;;7.85;3.25;;;;;;;6.45;55.73;101759.59;4844174;29;20248;-71
2023/03/16 08:30:52;;;;;;;4.00;2.17;;;;;;;6.39;53.97;101756.69;4832384;29;20212;-73
2023/03/16 08:33:46;;;;;;;9.00;2.65;;;;;;;6.40;53.26;101759.22;4832520;29;20190;-73
2023/03/16 08:36:19;;;;;;;7.60;1.83;;;;;;;6.54;54.45;101764.03;4833909;29;20197;-70
2023/03/16 08:38:53;;;;;;;6.63;3.67;;;;;;;6.55;52.09;101760.34;4830683;29;20257;-72
2023/03/16 08:41:40;;;;;;;6.55;2.67;;;;;;;6.71;52.77;101765.03;4844369;29;20297;-70
2023/03/16 08:44:17;;;;;;;5.65;2.00;;;;;;;7.02;52.22;101765.41;4842969;29;20231;-73
2023/03/16 08:46:46;;;;;;;7.13;2.20;;;;;;;6.94;52.22;101773.44;4859900;29;20225;-73
2023/03/16 08:49:16;;;;;;;4.60;1.98;;;;;;;6.88;51.53;101769.53;4847239;29;20233;-72
2023/03/16 08:51:45;;;;;;;3.25;1.90;;;;;;;7.00;50.87;101772.81;4825841;29;20582;-71
2023/03/16 08:54:14;;;;;;;6.88;1.92;;;;;;;6.92;51.64;101776.28;4840698;29;20285;-74
2023/03/16 08:56:45;;;;;;;6.43;2.53;;;;;;;6.98;50.90;101775.66;4827107;29;20195;-72
2023/03/16 08:59:14;;;;;;;5.40;2.35;;;;;;;7.14;51.53;101774.09;4828237;29;20271;-71
2023/03/16 09:02:00;;;;;;;4.90;1.75;;;;;;;7.28;50.51;101776.19;4842913;29;20290;-72
2023/03/16 09:04:29;;;;;;;7.47;2.47;;;;;;;7.25;50.71;101781.91;4836704;29;20213;-73
2023/03/16 09:06:59;;;;;;;4.43;2.20;;;;;;;7.01;50.26;101787.97;4827250;29;20243;-72
2023/03/16 09:09:38;;;;;;;5.63;2.00;;;;;;;7.08;50.76;101786.31;4837330;29;20614;-72
2023/03/16 09:12:09;;;;;;;4.75;2.30;;;;;;;7.15;49.43;101779.31;4842189;29;20211;-70
2023/03/16 09:15:37;;;;;;;6.93;2.95;;;;;;;7.37;48.69;101791.38;4835300;29;20202;-71
2023/03/16 09:18:06;;;;;;;2.45;1.10;;;;;;;7.48;47.27;101779.50;4840305;29;20222;-72
2023/03/16 09:20:36;;;;;;;3.88;1.38;;;;;;;7.79;47.33;101786.88;4852832;29;20210;-72
2023/03/16 09:23:05;;;;;;;3.80;1.65;;;;;;;7.65;46.35;101784.78;4850847;29;20205;-72
2023/03/16 09:25:34;;;;;;;6.00;2.08;;;;;;;7.97;45.57;101785.94;4849509;29;20234;-72
2023/03/16 09:28:05;;;;;;;11.63;2.90;;;;;;;7.79;44.54;101788.75;4852435;29;20230;-70
2023/03/16 09:30:34;;;;;;;5.43;1.55;;;;;;;7.81;44.46;101792.09;4837070;29;20246;-72
2023/03/16 09:33:03;;;;;;;2.70;1.10;;;;;;;7.82;44.64;101793.78;4851143;29;20229;-72
2023/03/16 09:35:32;;;;;;;5.50;1.85;;;;;;;8.10;44.46;101799.78;4846969;29;20237;-71
2023/03/16 09:38:04;;;;;;;3.97;1.42;;;;;;;8.15;43.22;101798.28;4827705;29;20271;-71
2023/03/16 09:40:37;;;;;;;7.22;2.15;;;;;;;8.14;43.42;101791.19;4825210;29;20722;-72
2023/03/16 09:43:28;;;;;;;5.30;1.58;;;;;;;8.17;43.62;101796.28;4830630;29;20637;-70
2023/03/16 09:46:08;;;;;;;2.80;2.00;;;;;;;8.03;42.49;101801.47;4833913;29;20215;-71
2023/03/16 09:48:40;;;;;;;4.13;1.75;;;;;;;8.13;42.12;101800.28;4829899;29;20264;-71
2023/03/16 09:51:18;;;;;;;4.40;1.10;;;;;;;8.19;41.49;101793.41;4836130;29;20198;-71
2023/03/16 09:53:50;;;;;;;4.50;1.23;;;;;;;8.50;42.13;101802.59;4837076;29;20207;-71
2023/03/16 09:59:34;;;;;;;5.57;1.38;;;;;;;8.63;41.28;101804.81;4830440;29;20224;-70
2023/03/16 10:02:40;;;;;;;3.60;2.00;;;;;;;8.61;41.10;101804.16;4830054;29;20222;-72
2023/03/16 10:05:18;;;;;;;4.00;1.40;;;;;;;8.51;41.34;101800.75;4825338;29;20578;-72
2023/03/16 10:08:03;;;;;;;2.95;1.05;;;;;;;8.69;40.83;101796.03;4811770;29;20681;-72
2023/03/16 10:11:05;;;;;;;6.13;2.08;;;;;;;8.86;38.26;101796.91;4824448;29;20207;-73
2023/03/16 10:13:53;;;;;;;3.63;1.65;;;;;;;8.86;37.74;101796.91;4841758;29;20202;-72
2023/03/16 10:16:41;;;;;;;6.85;1.50;;;;;;;8.82;37.10;101788.28;4843206;29;20201;-72
2023/03/16 10:19:42;;;;;;;3.80;1.00;;;;;;;8.88;38.44;101797.56;4839192;29;20239;-72
2023/03/16 10:22:25;;;;;;;7.63;2.22;;;;;;;8.91;37.21;101805.31;4832417;29;20302;-71
2023/03/16 10:30:49;;;;;;;1.98;1.00;;;;;;;8.50;38.17;101790.97;4826605;29;20215;-73
2023/03/16 10:33:38;;;;;;;2.05;1.10;;;;;;;8.96;38.58;101790.28;4843080;29;20217;-70
2023/03/16 10:36:29;;;;;;;5.18;1.42;;;;;;;9.07;38.65;101795.34;4805917;29;20207;-71
2023/03/16 10:39:30;;;;;;;5.97;1.75;;;;;;;9.03;37.90;101783.22;4818198;29;20318;-72
2023/03/16 10:42:06;;;;;;;4.53;1.20;;;;;;;8.93;37.53;101782.53;4810336;29;20294;-71
2023/03/16 10:45:07;;;;;;;5.78;1.50;;;;;;;8.97;38.23;101778.50;4812785;29;20211;-71
2023/03/16 10:47:44;;;;;;;2.83;1.67;;;;;;;9.14;39.49;101774.78;4824705;29;20335;-71
2023/03/16 10:50:36;;;;;;;2.03;1.10;;;;;;;9.30;38.44;101773.88;4828718;29;20214;-71
2023/03/16 10:53:20;;;;;;;8.52;1.23;;;;;;;9.34;37.94;101785.19;4833956;29;20272;-71
2023/03/16 10:56:03;;;;;;;4.75;1.10;;;;;;;9.48;37.95;101777.22;4828322;29;20273;-71
2023/03/16 10:58:42;;;;;;;5.25;1.63;;;;;;;9.56;38.26;101779.03;4822868;29;20321;-72
2023/03/16 11:04:16;;;;;;;2.90;1.40;;;;;;;9.72;37.85;101786.25;4826075;29;20218;-72
2023/03/16 11:06:58;;;;;;;3.85;1.30;;;;;;;9.29;37.12;101777.63;4836022;29;20855;-71
2023/03/16 11:09:42;;;;;;;5.57;1.60;;;;;;;9.34;37.67;101772.53;4823600;29;20271;-72
2023/03/16 11:12:27;;;;;;;2.97;1.55;;;;;;;9.53;36.88;101779.41;4825234;29;20230;-73
2023/03/16 11:15:07;;;;;;;4.40;2.08;;;;;;;9.58;36.31;101763.50;4827187;29;20258;-73
2023/03/16 11:18:02;;;;;;;5.95;2.00;;;;;;;9.70;36.22;101767.50;4822281;29;20234;-71
2023/03/16 11:20:37;;;;;;;4.70;1.53;;;;;;;9.88;36.21;101769.94;4809158;29;20694;-71
2023/03/16 11:23:39;;;;;;;6.10;1.43;;;;;;;9.96;35.20;101759.94;4825574;29;20452;-70
2023/03/16 11:26:33;;;;;;;2.30;1.33;;;;;;;9.41;35.64;101756.44;4822820;29;20560;-71
2023/03/16 11:29:21;;;;;;;7.70;1.30;;;;;;;9.53;36.80;101758.63;4830189;29;20993;-70
2023/03/16 11:32:04;;;;;;;3.17;1.50;;;;;;;9.71;35.97;101763.78;4812357;29;20441;-71
2023/03/16 11:34:48;;;;;;;2.95;1.55;;;;;;;9.71;35.61;101754.81;4827763;29;20533;-71
2023/03/16 11:37:59;;;;;;;1.80;1.40;;;;;;;9.84;35.30;101758.66;4824268;29;20717;-71
2023/03/16 11:40:47;;;;;;;4.13;1.30;;;;;;;9.95;34.98;101752.00;4823912;29;20215;-72
2023/03/16 11:43:48;;;;;;;6.15;1.92;;;;;;;10.02;35.23;101753.00;4831773;29;20448;-72
2023/03/16 11:46:38;;;;;;;3.65;1.35;;;;;;;9.81;34.63;101740.09;4831716;29;20231;-73
2023/03/16 11:49:51;;;;;;;2.60;1.37;;;;;;;9.67;35.29;101738.13;4824175;29;20231;-72
2023/03/16 11:55:40;;;;;;;3.67;1.63;;;;;;;9.97;35.63;101734.56;4815489;29;20503;-71
2023/03/16 11:58:40;;;;;;;2.00;1.33;;;;;;;10.14;35.30;101734.47;4823107;29;20547;-70
2023/03/16 12:02:32;;;;;;;8.30;1.37;;;;;;;10.10;34.75;101730.47;4835000;29;20444;-71
2023/03/16 12:05:41;;;;;;;7.78;1.77;;;;;;;10.00;35.54;101728.81;4839753;29;20851;-71
2023/03/16 12:08:48;;;;;;;2.25;1.13;;;;;;;9.87;37.01;101715.06;4816458;29;20242;-72
2023/03/16 12:11:33;;;;;;;3.67;3.38;;;;;;;9.88;37.11;101714.00;4827022;29;20203;-72
2023/03/16 12:14:21;;;;;;;3.38;1.35;;;;;;;10.17;37.56;101715.22;4826920;29;20621;-72
2023/03/16 12:17:09;;;;;;;4.57;1.80;;;;;;;10.21;36.19;101705.75;4826263;29;20303;-73
2023/03/16 12:19:59;;;;;;;4.30;1.80;;;;;;;10.18;35.56;101708.78;4826770;29;20456;-72
2023/03/16 12:22:42;;;;;;;1.90;1.10;;;;;;;10.13;33.78;101708.44;4846915;29;20207;-71
2023/03/16 12:25:25;;;;;;;7.87;1.40;;;;;;;10.16;34.12;101706.28;4824271;29;20428;-72
2023/03/16 12:28:08;;;;;;;6.53;1.43;;;;;;;10.15;33.88;101711.81;4826417;29;20562;-72
2023/03/16 12:30:53;;;;;;;3.38;1.30;;;;;;;10.17;33.96;101698.97;4827488;29;20425;-71
2023/03/16 12:33:47;;;;;;;6.83;1.40;;;;;;;10.24;34.00;101698.09;4827565;29;20206;-72
2023/03/16 12:36:56;;;;;;;2.00;1.17;;;;;;;10.13;33.93;101700.34;4813250;29;20842;-71
2023/03/16 12:39:51;;;;;;;5.97;2.00;;;;;;;10.12;33.18;101685.16;4814133;29;20424;-72
2023/03/16 12:42:47;;;;;;;2.10;1.23;;;;;;;10.14;33.18;101685.78;4814897;29;20468;-72
2023/03/16 12:45:36;;;;;;;5.43;2.13;;;;;;;9.96;33.15;101692.34;4830953;29;20432;-73
2023/03/16 12:48:26;;;;;;;4.27;1.70;;;;;;;10.07;32.56;101684.84;4827351;29;20494;-71
2023/03/16 12:51:04;;;;;;;5.07;1.93;;;;;;;10.44;33.02;101682.22;4813127;29;20451;-71